sensor_id;sensor_type;location;lat;lon;timestamp;temperature;humidity
21302;DHT22;10810;48.270;9.996;2022-10-16T00:02:32;15.70;99.90
21302;DHT22;10810;48.270;9.996;2022-10-16T00:05:16;15.70;99.90
21302;DHT22;10810;48.270;9.996;2022-10-16T00:07:53;15.70;99.90
21302;DHT22;10810;48.270;9.996;2022-10-16T00:17:30;15.80;99.90
21302;DHT22;10810;48.270;9.996;2022-10-16T00:20:34;15.70;99.90
21302;DHT22;10810;48.270;9.996;2022-10-16T00:23:49;15.80;99.90
21302;DHT22;10810;48.270;9.996;2022-10-16T00:28:34;15.70;99.90
21302;DHT22;10810;48.270;9.996;2022-10-16T00:36:58;15.70;99.90
21302;DHT22;10810;48.270;9.996;2022-10-16T00:39:56;15.70;99.90
21302;DHT22;10810;48.270;9.996;2022-10-16T00:42:55;15.70;99.90
21302;DHT22;10810;48.270;9.996;2022-10-16T00:45:49;15.70;99.90
21302;DHT22;10810;48.270;9.996;2022-10-16T00:50:03;15.60;99.90
21302;DHT22;10810;48.270;9.996;2022-10-16T02:05:22;15.40;99.90
21302;DHT22;10810;48.270;9.996;2022-10-16T02:08:29;15.50;99.90
21302;DHT22;10810;48.270;9.996;2022-10-16T02:11:24;15.40;99.90
21302;DHT22;10810;48.270;9.996;2022-10-16T02:14:50;15.30;99.90
21302;DHT22;10810;48.270;9.996;2022-10-16T02:17:50;15.40;99.90
21302;DHT22;10810;48.270;9.996;2022-10-16T02:20:57;15.70;99.90
21302;DHT22;10810;48.270;9.996;2022-10-16T02:24:06;15.40;99.90
21302;DHT22;10810;48.270;9.996;2022-10-16T02:30:43;15.40;99.90
21302;DHT22;10810;48.270;9.996;2022-10-16T02:33:50;15.30;99.90
21302;DHT22;10810;48.270;9.996;2022-10-16T02:37:00;15.80;99.90
21302;DHT22;10810;48.270;9.996;2022-10-16T02:40:02;15.50;99.90
21302;DHT22;10810;48.270;9.996;2022-10-16T02:43:24;15.40;99.90
21302;DHT22;10810;48.270;9.996;2022-10-16T02:46:15;15.30;99.90
21302;DHT22;10810;48.270;9.996;2022-10-16T02:50:20;15.10;99.90
21302;DHT22;10810;48.270;9.996;2022-10-16T02:52:15;15.30;99.90
21302;DHT22;10810;48.270;9.996;2022-10-16T02:55:15;15.30;99.90
21302;DHT22;10810;48.270;9.996;2022-10-16T02:58:24;15.20;99.90
21302;DHT22;10810;48.270;9.996;2022-10-16T03:01:16;15.40;99.90
21302;DHT22;10810;48.270;9.996;2022-10-16T03:11:22;15.30;99.90
21302;DHT22;10810;48.270;9.996;2022-10-16T03:14:50;15.30;99.90
21302;DHT22;10810;48.270;9.996;2022-10-16T03:20:46;15.30;99.90
21302;DHT22;10810;48.270;9.996;2022-10-16T03:23:27;15.20;99.90
21302;DHT22;10810;48.270;9.996;2022-10-16T03:29:59;15.40;99.90
21302;DHT22;10810;48.270;9.996;2022-10-16T03:33:13;15.30;99.90
21302;DHT22;10810;48.270;9.996;2022-10-16T03:36:32;15.30;99.90
21302;DHT22;10810;48.270;9.996;2022-10-16T03:42:43;15.10;99.90
21302;DHT22;10810;48.270;9.996;2022-10-16T03:46:01;15.20;99.90
21302;DHT22;10810;48.270;9.996;2022-10-16T03:49:24;15.10;99.90
21302;DHT22;10810;48.270;9.996;2022-10-16T03:53:02;15.20;99.90
21302;DHT22;10810;48.270;9.996;2022-10-16T03:58:55;15.20;99.90
21302;DHT22;10810;48.270;9.996;2022-10-16T04:01:32;15.20;99.90
21302;DHT22;10810;48.270;9.996;2022-10-16T04:07:02;15.20;99.90
21302;DHT22;10810;48.270;9.996;2022-10-16T04:10:56;15.20;99.90
21302;DHT22;10810;48.270;9.996;2022-10-16T04:12:56;15.20;99.90
21302;DHT22;10810;48.270;9.996;2022-10-16T04:28:29;15.20;99.90
21302;DHT22;10810;48.270;9.996;2022-10-16T04:35:00;15.10;99.90
21302;DHT22;10810;48.270;9.996;2022-10-16T04:37:52;15.10;99.90
21302;DHT22;10810;48.270;9.996;2022-10-16T04:40:28;15.10;99.90
21302;DHT22;10810;48.270;9.996;2022-10-16T04:43:18;15.10;99.90
21302;DHT22;10810;48.270;9.996;2022-10-16T04:50:14;15.20;99.90
21302;DHT22;10810;48.270;9.996;2022-10-16T04:52:45;15.30;99.90
21302;DHT22;10810;48.270;9.996;2022-10-16T04:56:50;15.10;99.90
21302;DHT22;10810;48.270;9.996;2022-10-16T04:59:28;15.10;99.90
21302;DHT22;10810;48.270;9.996;2022-10-16T05:02:05;15.10;99.90
21302;DHT22;10810;48.270;9.996;2022-10-16T05:05:15;15.10;99.90
21302;DHT22;10810;48.270;9.996;2022-10-16T05:08:28;15.10;99.90
21302;DHT22;10810;48.270;9.996;2022-10-16T05:11:14;15.00;99.90
21302;DHT22;10810;48.270;9.996;2022-10-16T05:13:52;15.00;99.90
21302;DHT22;10810;48.270;9.996;2022-10-16T05:16:35;15.00;99.90
21302;DHT22;10810;48.270;9.996;2022-10-16T05:21:00;15.00;99.90
21302;DHT22;10810;48.270;9.996;2022-10-16T05:23:12;15.20;99.90
21302;DHT22;10810;48.270;9.996;2022-10-16T05:30:21;15.00;99.90
21302;DHT22;10810;48.270;9.996;2022-10-16T05:35:49;15.00;99.90
21302;DHT22;10810;48.270;9.996;2022-10-16T08:28:36;15.00;99.90
21302;DHT22;10810;48.270;9.996;2022-10-16T08:31:09;15.00;99.90
21302;DHT22;10810;48.270;9.996;2022-10-16T08:33:43;15.00;99.90
21302;DHT22;10810;48.270;9.996;2022-10-16T08:36:55;15.00;99.90
21302;DHT22;10810;48.270;9.996;2022-10-16T08:39:26;15.00;99.90
21302;DHT22;10810;48.270;9.996;2022-10-16T08:42:17;15.00;99.90
21302;DHT22;10810;48.270;9.996;2022-10-16T15:47:59;18.20;99.90
21302;DHT22;10810;48.270;9.996;2022-10-16T15:50:30;18.20;99.90
21302;DHT22;10810;48.270;9.996;2022-10-16T15:53:20;18.20;99.90
21302;DHT22;10810;48.270;9.996;2022-10-16T15:55:48;18.20;99.90
21302;DHT22;10810;48.270;9.996;2022-10-16T15:58:19;18.30;99.90
21302;DHT22;10810;48.270;9.996;2022-10-16T16:00:54;18.20;99.90
21302;DHT22;10810;48.270;9.996;2022-10-16T16:06:21;18.20;99.90
21302;DHT22;10810;48.270;9.996;2022-10-16T16:08:57;18.20;99.90
21302;DHT22;10810;48.270;9.996;2022-10-16T16:11:52;18.20;99.90
21302;DHT22;10810;48.270;9.996;2022-10-16T16:14:30;18.20;99.90
